sensor_id;sensor_type;location;lat;lon;timestamp;pressure;altitude;pressure_sealevel;temperature;humidity
74659;BME280;63186;51.204;6.536;2023-01-20T00:01:52;100642.97;;;-1.49;100.00
74659;BME280;63186;51.204;6.536;2023-01-20T00:04:17;100644.50;;;-1.41;100.00
74659;BME280;63186;51.204;6.536;2023-01-20T00:06:43;100637.09;;;-1.34;100.00
74659;BME280;63186;51.204;6.536;2023-01-20T00:09:13;100651.88;;;-1.25;100.00
74659;BME280;63186;51.204;6.536;2023-01-20T00:11:38;100647.66;;;-1.21;100.00
74659;BME280;63186;51.204;6.536;2023-01-20T00:14:03;100652.69;;;-1.13;100.00
74659;BME280;63186;51.204;6.536;2023-01-20T00:16:29;100647.16;;;-1.06;100.00
74659;BME280;63186;51.204;6.536;2023-01-20T00:18:56;100659.97;;;-1.01;100.00
74659;BME280;63186;51.204;6.536;2023-01-20T00:21:22;100654.44;;;-0.95;100.00
74659;BME280;63186;51.204;6.536;2023-01-20T00:23:48;100651.59;;;-0.88;100.00
74659;BME280;63186;51.204;6.536;2023-01-20T00:26:18;100654.75;;;-0.79;99.92
74659;BME280;63186;51.204;6.536;2023-01-20T00:28:46;100663.91;;;-0.69;99.78
74659;BME280;63186;51.204;6.536;2023-01-20T00:31:16;100655.91;;;-0.64;99.66
74659;BME280;63186;51.204;6.536;2023-01-20T00:33:43;100658.47;;;-0.57;99.49
74659;BME280;63186;51.204;6.536;2023-01-20T00:36:09;100665.53;;;-0.56;99.41
74659;BME280;63186;51.204;6.536;2023-01-20T00:38:35;100669.72;;;-0.48;99.06
74659;BME280;63186;51.204;6.536;2023-01-20T00:41:00;100663.84;;;-0.45;98.86
74659;BME280;63186;51.204;6.536;2023-01-20T00:43:25;100664.66;;;-0.45;98.60
74659;BME280;63186;51.204;6.536;2023-01-20T00:45:51;100663.09;;;-0.41;98.40
74659;BME280;63186;51.204;6.536;2023-01-20T00:48:16;100669.25;;;-0.45;98.81
74659;BME280;63186;51.204;6.536;2023-01-20T00:50:41;100667.59;;;-0.46;98.77
74659;BME280;63186;51.204;6.536;2023-01-20T00:53:07;100671.72;;;-0.44;98.37
74659;BME280;63186;51.204;6.536;2023-01-20T00:55:32;100676.88;;;-0.42;98.68
74659;BME280;63186;51.204;6.536;2023-01-20T00:57:57;100686.06;;;-0.43;98.45
74659;BME280;63186;51.204;6.536;2023-01-20T01:00:23;100682.53;;;-0.44;98.41
74659;BME280;63186;51.204;6.536;2023-01-20T01:02:48;100684.41;;;-0.44;98.21
74659;BME280;63186;51.204;6.536;2023-01-20T01:05:13;100677.94;;;-0.43;98.24
74659;BME280;63186;51.204;6.536;2023-01-20T01:07:39;100670.66;;;-0.43;98.36
74659;BME280;63186;51.204;6.536;2023-01-20T01:10:05;100678.75;;;-0.43;98.40
74659;BME280;63186;51.204;6.536;2023-01-20T01:12:30;100681.47;;;-0.43;98.31
74659;BME280;63186;51.204;6.536;2023-01-20T01:14:56;100690.16;;;-0.41;98.35
74659;BME280;63186;51.204;6.536;2023-01-20T01:17:21;100692.84;;;-0.41;98.23
74659;BME280;63186;51.204;6.536;2023-01-20T01:19:48;100683.00;;;-0.47;98.31
74659;BME280;63186;51.204;6.536;2023-01-20T01:22:14;100698.00;;;-0.39;98.30
74659;BME280;63186;51.204;6.536;2023-01-20T01:24:42;100698.00;;;-0.39;98.55
74659;BME280;63186;51.204;6.536;2023-01-20T01:27:07;100705.09;;;-0.38;98.47
74659;BME280;63186;51.204;6.536;2023-01-20T01:29:32;100701.31;;;-0.37;98.52
74659;BME280;63186;51.204;6.536;2023-01-20T01:31:58;100699.44;;;-0.37;98.64
74659;BME280;63186;51.204;6.536;2023-01-20T01:34:23;100706.50;;;-0.36;98.43
74659;BME280;63186;51.204;6.536;2023-01-20T01:36:48;100712.16;;;-0.37;98.33
74659;BME280;63186;51.204;6.536;2023-01-20T01:39:14;100719.19;;;-0.36;98.47
74659;BME280;63186;51.204;6.536;2023-01-20T01:41:39;100711.91;;;-0.36;98.14
74659;BME280;63186;51.204;6.536;2023-01-20T01:46:30;100723.06;;;-0.32;98.22
74659;BME280;63186;51.204;6.536;2023-01-20T01:48:56;100721.91;;;-0.36;98.32
74659;BME280;63186;51.204;6.536;2023-01-20T01:51:25;100729.31;;;-0.32;98.33
74659;BME280;63186;51.204;6.536;2023-01-20T01:53:59;100732.47;;;-0.35;98.35
74659;BME280;63186;51.204;6.536;2023-01-20T01:56:27;100735.66;;;-0.38;98.43
74659;BME280;63186;51.204;6.536;2023-01-20T01:58:56;100744.09;;;-0.34;98.24
74659;BME280;63186;51.204;6.536;2023-01-20T02:01:22;100747.06;;;-0.36;98.20
74659;BME280;63186;51.204;6.536;2023-01-20T02:04:10;100746.50;;;-0.38;98.01
74659;BME280;63186;51.204;6.536;2023-01-20T02:06:43;100746.69;;;-0.39;97.90
74659;BME280;63186;51.204;6.536;2023-01-20T02:09:09;100743.41;;;-0.41;98.38
74659;BME280;63186;51.204;6.536;2023-01-20T02:11:48;100745.56;;;-0.43;98.06
74659;BME280;63186;51.204;6.536;2023-01-20T02:14:17;100748.50;;;-0.45;98.32
74659;BME280;63186;51.204;6.536;2023-01-20T02:22:45;100746.94;;;-0.41;98.31
74659;BME280;63186;51.204;6.536;2023-01-20T02:35:54;100743.09;;;-0.45;98.01
74659;BME280;63186;51.204;6.536;2023-01-20T02:43:58;100750.84;;;-0.48;98.24
74659;BME280;63186;51.204;6.536;2023-01-20T02:46:33;100752.72;;;-0.49;98.12
74659;BME280;63186;51.204;6.536;2023-01-20T02:51:58;100750.53;;;-0.52;98.21
74659;BME280;63186;51.204;6.536;2023-01-20T02:54:28;100743.22;;;-0.51;98.24
74659;BME280;63186;51.204;6.536;2023-01-20T02:56:57;100747.09;;;-0.47;98.17
74659;BME280;63186;51.204;6.536;2023-01-20T02:59:29;100742.72;;;-0.48;98.24
74659;BME280;63186;51.204;6.536;2023-01-20T03:02:02;100756.50;;;-0.50;98.13
74659;BME280;63186;51.204;6.536;2023-01-20T03:04:51;100760.97;;;-0.56;98.26
74659;BME280;63186;51.204;6.536;2023-01-20T03:07:20;100765.00;;;-0.58;98.29
74659;BME280;63186;51.204;6.536;2023-01-20T03:09:49;100766.25;;;-0.61;98.43
74659;BME280;63186;51.204;6.536;2023-01-20T03:12:23;100766.38;;;-0.67;98.08
74659;BME280;63186;51.204;6.536;2023-01-20T03:14:50;100771.66;;;-0.72;98.93
74659;BME280;63186;51.204;6.536;2023-01-20T03:17:17;100782.97;;;-0.75;98.83
74659;BME280;63186;51.204;6.536;2023-01-20T03:19:43;100779.22;;;-0.74;99.13
74659;BME280;63186;51.204;6.536;2023-01-20T03:22:08;100774.16;;;-0.71;99.25
74659;BME280;63186;51.204;6.536;2023-01-20T03:24:34;100787.44;;;-0.69;99.12
74659;BME280;63186;51.204;6.536;2023-01-20T03:27:01;100781.47;;;-0.71;99.12
74659;BME280;63186;51.204;6.536;2023-01-20T03:29:27;100777.91;;;-0.72;99.23
74659;BME280;63186;51.204;6.536;2023-01-20T03:31:56;100794.84;;;-0.65;99.48
74659;BME280;63186;51.204;6.536;2023-01-20T03:34:28;100796.50;;;-0.64;99.44
74659;BME280;63186;51.204;6.536;2023-01-20T03:36:56;100790.25;;;-0.64;99.38
74659;BME280;63186;51.204;6.536;2023-01-20T03:39:22;100787.44;;;-0.69;99.06
74659;BME280;63186;51.204;6.536;2023-01-20T03:42:06;100786.63;;;-0.82;98.76
74659;BME280;63186;51.204;6.536;2023-01-20T03:52:42;100781.41;;;-1.30;99.69
74659;BME280;63186;51.204;6.536;2023-01-20T03:55:17;100784.22;;;-1.37;100.00
74659;BME280;63186;51.204;6.536;2023-01-20T03:57:59;100784.66;;;-1.40;100.00
74659;BME280;63186;51.204;6.536;2023-01-20T04:00:30;100788.88;;;-1.44;99.98
74659;BME280;63186;51.204;6.536;2023-01-20T04:02:59;100786.06;;;-1.49;100.00
74659;BME280;63186;51.204;6.536;2023-01-20T04:05:26;100794.84;;;-1.53;100.00
74659;BME280;63186;51.204;6.536;2023-01-20T04:07:55;100797.41;;;-1.58;100.00
74659;BME280;63186;51.204;6.536;2023-01-20T04:10:22;100795.19;;;-1.61;100.00
74659;BME280;63186;51.204;6.536;2023-01-20T04:12:50;100788.22;;;-1.69;100.00
74659;BME280;63186;51.204;6.536;2023-01-20T04:15:16;100792.44;;;-1.73;100.00
74659;BME280;63186;51.204;6.536;2023-01-20T04:17:43;100788.19;;;-1.81;100.00
74659;BME280;63186;51.204;6.536;2023-01-20T04:20:09;100794.41;;;-1.80;100.00
74659;BME280;63186;51.204;6.536;2023-01-20T04:22:45;100796.63;;;-1.77;100.00
74659;BME280;63186;51.204;6.536;2023-01-20T04:25:27;100792.66;;;-1.75;100.00
74659;BME280;63186;51.204;6.536;2023-01-20T04:27:53;100790.63;;;-1.79;100.00
74659;BME280;63186;51.204;6.536;2023-01-20T04:30:19;100791.84;;;-1.75;100.00
74659;BME280;63186;51.204;6.536;2023-01-20T04:32:45;100792.34;;;-1.67;100.00
74659;BME280;63186;51.204;6.536;2023-01-20T04:35:12;100804.69;;;-1.59;100.00
74659;BME280;63186;51.204;6.536;2023-01-20T04:37:38;100801.53;;;-1.44;100.00
74659;BME280;63186;51.204;6.536;2023-01-20T04:40:03;100806.31;;;-1.28;100.00
74659;BME280;63186;51.204;6.536;2023-01-20T04:42:29;100804.78;;;-1.12;100.00
74659;BME280;63186;51.204;6.536;2023-01-20T04:44:54;100806.81;;;-0.96;100.00
74659;BME280;63186;51.204;6.536;2023-01-20T04:47:19;100812.44;;;-0.86;100.00
74659;BME280;63186;51.204;6.536;2023-01-20T04:49:44;100810.34;;;-0.72;100.00
74659;BME280;63186;51.204;6.536;2023-01-20T04:52:10;100820.81;;;-0.64;99.74
74659;BME280;63186;51.204;6.536;2023-01-20T04:54:35;100818.44;;;-0.60;99.51
74659;BME280;63186;51.204;6.536;2023-01-20T04:57:00;100815.88;;;-0.55;99.23
74659;BME280;63186;51.204;6.536;2023-01-20T04:59:25;100826.00;;;-0.50;99.40
74659;BME280;63186;51.204;6.536;2023-01-20T05:01:51;100826.31;;;-0.47;98.98
74659;BME280;63186;51.204;6.536;2023-01-20T05:04:16;100828.56;;;-0.44;98.94
74659;BME280;63186;51.204;6.536;2023-01-20T05:06:41;100834.56;;;-0.42;98.86
74659;BME280;63186;51.204;6.536;2023-01-20T05:09:11;100835.97;;;-0.39;98.46
74659;BME280;63186;51.204;6.536;2023-01-20T05:11:37;100830.34;;;-0.38;98.30
74659;BME280;63186;51.204;6.536;2023-01-20T05:14:02;100831.72;;;-0.35;98.14
74659;BME280;63186;51.204;6.536;2023-01-20T05:16:27;100835.00;;;-0.33;98.08
74659;BME280;63186;51.204;6.536;2023-01-20T05:18:56;100835.00;;;-0.33;98.23
74659;BME280;63186;51.204;6.536;2023-01-20T05:21:22;100846.69;;;-0.33;98.11
74659;BME280;63186;51.204;6.536;2023-01-20T05:23:47;100834.78;;;-0.32;98.18
74659;BME280;63186;51.204;6.536;2023-01-20T05:26:13;100832.66;;;-0.30;98.11
74659;BME280;63186;51.204;6.536;2023-01-20T05:28:38;100831.59;;;-0.29;98.01
74659;BME280;63186;51.204;6.536;2023-01-20T05:31:03;100837.00;;;-0.29;98.00
74659;BME280;63186;51.204;6.536;2023-01-20T05:33:29;100838.44;;;-0.26;98.04
74659;BME280;63186;51.204;6.536;2023-01-20T05:35:54;100837.59;;;-0.27;97.81
74659;BME280;63186;51.204;6.536;2023-01-20T05:38:19;100849.84;;;-0.24;97.96
74659;BME280;63186;51.204;6.536;2023-01-20T05:40:44;100846.88;;;-0.22;97.99
74659;BME280;63186;51.204;6.536;2023-01-20T05:43:10;100847.94;;;-0.23;97.98
74659;BME280;63186;51.204;6.536;2023-01-20T05:45:35;100843.84;;;-0.26;97.66
74659;BME280;63186;51.204;6.536;2023-01-20T05:48:00;100849.47;;;-0.28;97.56
74659;BME280;63186;51.204;6.536;2023-01-20T05:50:28;100853.00;;;-0.27;97.59
74659;BME280;63186;51.204;6.536;2023-01-20T05:52:53;100855.72;;;-0.27;97.36
74659;BME280;63186;51.204;6.536;2023-01-20T05:55:19;100855.13;;;-0.29;97.82
74659;BME280;63186;51.204;6.536;2023-01-20T05:57:45;100856.53;;;-0.27;97.89
74659;BME280;63186;51.204;6.536;2023-01-20T06:00:11;100859.47;;;-0.28;97.90
74659;BME280;63186;51.204;6.536;2023-01-20T06:02:38;100861.72;;;-0.25;97.90
74659;BME280;63186;51.204;6.536;2023-01-20T06:05:04;100861.94;;;-0.27;97.56
74659;BME280;63186;51.204;6.536;2023-01-20T06:07:30;100877.59;;;-0.29;97.34
74659;BME280;63186;51.204;6.536;2023-01-20T06:09:55;100878.28;;;-0.33;97.25
74659;BME280;63186;51.204;6.536;2023-01-20T06:12:21;100882.88;;;-0.34;97.20
74659;BME280;63186;51.204;6.536;2023-01-20T06:14:46;100893.69;;;-0.34;97.38
74659;BME280;63186;51.204;6.536;2023-01-20T06:17:12;100894.75;;;-0.35;97.57
74659;BME280;63186;51.204;6.536;2023-01-20T06:19:37;100887.47;;;-0.34;97.69
74659;BME280;63186;51.204;6.536;2023-01-20T06:22:02;100896.41;;;-0.34;97.34
74659;BME280;63186;51.204;6.536;2023-01-20T06:24:27;100899.94;;;-0.33;97.72
74659;BME280;63186;51.204;6.536;2023-01-20T06:26:53;100898.91;;;-0.32;97.78
74659;BME280;63186;51.204;6.536;2023-01-20T06:29:18;100904.31;;;-0.32;97.79
74659;BME280;63186;51.204;6.536;2023-01-20T06:31:44;100907.84;;;-0.32;97.76
74659;BME280;63186;51.204;6.536;2023-01-20T06:34:10;100913.47;;;-0.33;97.29
74659;BME280;63186;51.204;6.536;2023-01-20T06:36:35;100907.72;;;-0.37;97.70
74659;BME280;63186;51.204;6.536;2023-01-20T06:39:01;100914.19;;;-0.38;97.84
74659;BME280;63186;51.204;6.536;2023-01-20T06:41:26;100910.66;;;-0.38;97.84
74659;BME280;63186;51.204;6.536;2023-01-20T06:43:52;100906.66;;;-0.36;97.66
74659;BME280;63186;51.204;6.536;2023-01-20T06:46:17;100910.16;;;-0.35;97.72
74659;BME280;63186;51.204;6.536;2023-01-20T06:48:44;100913.94;;;-0.36;97.26
74659;BME280;63186;51.204;6.536;2023-01-20T06:51:18;100921.00;;;-0.35;97.13
74659;BME280;63186;51.204;6.536;2023-01-20T06:53:44;100919.94;;;-0.34;97.30
74659;BME280;63186;51.204;6.536;2023-01-20T06:56:11;100910.41;;;-0.37;97.09
74659;BME280;63186;51.204;6.536;2023-01-20T06:58:37;100923.25;;;-0.32;97.24
74659;BME280;63186;51.204;6.536;2023-01-20T07:01:05;100928.41;;;-0.31;97.31
74659;BME280;63186;51.204;6.536;2023-01-20T07:03:31;100923.25;;;-0.32;97.50
74659;BME280;63186;51.204;6.536;2023-01-20T07:05:58;100924.66;;;-0.30;97.63
74659;BME280;63186;51.204;6.536;2023-01-20T07:08:24;100923.00;;;-0.31;97.56
74659;BME280;63186;51.204;6.536;2023-01-20T07:10:49;100926.28;;;-0.29;97.24
74659;BME280;63186;51.204;6.536;2023-01-20T07:13:15;100926.03;;;-0.27;97.38
74659;BME280;63186;51.204;6.536;2023-01-20T07:15:40;100928.28;;;-0.24;97.16
74659;BME280;63186;51.204;6.536;2023-01-20T07:18:05;100936.16;;;-0.22;97.10
74659;BME280;63186;51.204;6.536;2023-01-20T07:20:30;100926.41;;;-0.23;96.66
74659;BME280;63186;51.204;6.536;2023-01-20T07:22:58;100934.97;;;-0.27;96.63
74659;BME280;63186;51.204;6.536;2023-01-20T07:25:23;100941.25;;;-0.26;96.72
74659;BME280;63186;51.204;6.536;2023-01-20T07:27:49;100949.38;;;-0.26;96.87
74659;BME280;63186;51.204;6.536;2023-01-20T07:30:15;100947.00;;;-0.22;97.05
74659;BME280;63186;51.204;6.536;2023-01-20T07:32:41;100950.53;;;-0.22;97.17
74659;BME280;63186;51.204;6.536;2023-01-20T07:35:07;100952.97;;;-0.20;96.58
74659;BME280;63186;51.204;6.536;2023-01-20T07:37:32;100961.22;;;-0.15;97.04
74659;BME280;63186;51.204;6.536;2023-01-20T07:39:58;100970.78;;;-0.13;96.44
74659;BME280;63186;51.204;6.536;2023-01-20T07:44:55;100963.13;;;-0.04;96.69
74659;BME280;63186;51.204;6.536;2023-01-20T07:47:20;100967.47;;;-0.03;96.53
74659;BME280;63186;51.204;6.536;2023-01-20T07:49:45;100976.66;;;-0.04;96.03
74659;BME280;63186;51.204;6.536;2023-01-20T07:52:11;100984.28;;;-0.01;96.56
74659;BME280;63186;51.204;6.536;2023-01-20T07:54:36;100980.88;;;0.04;96.67
74659;BME280;63186;51.204;6.536;2023-01-20T07:57:01;100980.19;;;0.08;96.41
74659;BME280;63186;51.204;6.536;2023-01-20T07:59:27;100986.75;;;0.12;96.51
74659;BME280;63186;51.204;6.536;2023-01-20T08:01:53;100984.03;;;0.12;96.25
74659;BME280;63186;51.204;6.536;2023-01-20T08:04:19;100990.28;;;0.13;96.31
74659;BME280;63186;51.204;6.536;2023-01-20T08:06:44;100988.41;;;0.13;96.06
74659;BME280;63186;51.204;6.536;2023-01-20T08:09:09;100986.75;;;0.12;96.22
74659;BME280;63186;51.204;6.536;2023-01-20T08:11:36;100986.16;;;0.10;96.09
74659;BME280;63186;51.204;6.536;2023-01-20T08:14:02;101002.78;;;0.14;96.06
74659;BME280;63186;51.204;6.536;2023-01-20T08:16:28;101000.78;;;0.09;95.85
74659;BME280;63186;51.204;6.536;2023-01-20T08:18:53;100995.94;;;0.11;96.20
74659;BME280;63186;51.204;6.536;2023-01-20T08:21:24;101004.53;;;0.20;95.79
74659;BME280;63186;51.204;6.536;2023-01-20T08:23:50;101008.06;;;0.20;95.23
74659;BME280;63186;51.204;6.536;2023-01-20T08:26:16;101009.47;;;0.23;94.79
74659;BME280;63186;51.204;6.536;2023-01-20T08:28:41;101012.06;;;0.30;95.02
74659;BME280;63186;51.204;6.536;2023-01-20T08:31:10;101008.97;;;0.38;94.64
74659;BME280;63186;51.204;6.536;2023-01-20T08:33:35;101016.03;;;0.39;93.95
74659;BME280;63186;51.204;6.536;2023-01-20T08:36:13;101013.22;;;0.45;94.59
74659;BME280;63186;51.204;6.536;2023-01-20T08:38:39;101020.06;;;0.48;94.16
74659;BME280;63186;51.204;6.536;2023-01-20T08:41:07;101016.63;;;0.52;93.78
74659;BME280;63186;51.204;6.536;2023-01-20T08:43:32;101019.00;;;0.49;93.62
74659;BME280;63186;51.204;6.536;2023-01-20T08:46:00;101005.44;;;0.49;93.67
74659;BME280;63186;51.204;6.536;2023-01-20T08:48:25;101016.53;;;0.47;93.69
74659;BME280;63186;51.204;6.536;2023-01-20T08:50:51;101022.28;;;0.51;93.76
74659;BME280;63186;51.204;6.536;2023-01-20T08:53:16;101023.81;;;0.47;92.78
74659;BME280;63186;51.204;6.536;2023-01-20T08:55:41;101016.28;;;0.49;93.76
74659;BME280;63186;51.204;6.536;2023-01-20T08:58:07;101027.13;;;0.49;93.87
74659;BME280;63186;51.204;6.536;2023-01-20T09:00:32;101021.94;;;0.47;93.30
74659;BME280;63186;51.204;6.536;2023-01-20T09:02:57;101020.75;;;0.55;93.84
74659;BME280;63186;51.204;6.536;2023-01-20T09:05:22;101019.53;;;0.63;93.92
74659;BME280;63186;51.204;6.536;2023-01-20T09:07:48;101014.50;;;0.66;93.38
74659;BME280;63186;51.204;6.536;2023-01-20T09:10:13;101026.47;;;0.70;93.44
74659;BME280;63186;51.204;6.536;2023-01-20T09:12:38;101030.63;;;0.73;92.96
74659;BME280;63186;51.204;6.536;2023-01-20T09:15:04;101021.75;;;0.77;93.04
74659;BME280;63186;51.204;6.536;2023-01-20T09:17:33;101028.09;;;0.83;92.14
74659;BME280;63186;51.204;6.536;2023-01-20T09:19:58;101030.78;;;0.95;92.88
74659;BME280;63186;51.204;6.536;2023-01-20T09:22:23;101031.22;;;1.03;91.89
74659;BME280;63186;51.204;6.536;2023-01-20T09:24:48;101026.72;;;1.09;91.25
74659;BME280;63186;51.204;6.536;2023-01-20T09:27:14;101014.91;;;1.15;91.30
74659;BME280;63186;51.204;6.536;2023-01-20T09:29:39;101023.56;;;1.29;90.83
74659;BME280;63186;51.204;6.536;2023-01-20T09:32:04;101026.91;;;1.48;90.49
74659;BME280;63186;51.204;6.536;2023-01-20T09:34:30;101027.47;;;1.50;90.02
74659;BME280;63186;51.204;6.536;2023-01-20T09:37:00;101032.84;;;1.45;90.45
74659;BME280;63186;51.204;6.536;2023-01-20T09:39:45;101041.13;;;1.38;90.62
74659;BME280;63186;51.204;6.536;2023-01-20T09:46:00;101033.69;;;1.33;90.54
74659;BME280;63186;51.204;6.536;2023-01-20T09:48:37;101036.66;;;1.32;90.41
74659;BME280;63186;51.204;6.536;2023-01-20T09:51:48;101030.50;;;1.36;89.36
74659;BME280;63186;51.204;6.536;2023-01-20T09:54:42;101033.56;;;1.40;90.09
74659;BME280;63186;51.204;6.536;2023-01-20T09:57:09;101034.72;;;1.44;90.41
74659;BME280;63186;51.204;6.536;2023-01-20T09:59:41;101030.50;;;1.36;89.70
74659;BME280;63186;51.204;6.536;2023-01-20T10:02:16;101036.75;;;1.37;89.73
74659;BME280;63186;51.204;6.536;2023-01-20T10:04:46;101035.28;;;1.46;90.23
74659;BME280;63186;51.204;6.536;2023-01-20T10:07:23;101046.81;;;1.53;89.94
74659;BME280;63186;51.204;6.536;2023-01-20T10:10:25;101049.13;;;1.61;88.23
74659;BME280;63186;51.204;6.536;2023-01-20T10:12:56;101046.09;;;1.58;88.82
74659;BME280;63186;51.204;6.536;2023-01-20T10:15:41;101042.78;;;1.56;89.19
74659;BME280;63186;51.204;6.536;2023-01-20T10:18:23;101047.38;;;1.55;87.40
74659;BME280;63186;51.204;6.536;2023-01-20T10:21:24;101049.78;;;1.52;89.20
74659;BME280;63186;51.204;6.536;2023-01-20T10:23:56;101045.91;;;1.48;89.32
74659;BME280;63186;51.204;6.536;2023-01-20T10:26:33;101045.06;;;1.47;89.23
74659;BME280;63186;51.204;6.536;2023-01-20T10:29:05;101050.25;;;1.49;89.87
74659;BME280;63186;51.204;6.536;2023-01-20T10:31:37;101045.16;;;1.52;90.06
74659;BME280;63186;51.204;6.536;2023-01-20T10:34:17;101035.81;;;1.60;88.54
74659;BME280;63186;51.204;6.536;2023-01-20T10:36:48;101042.22;;;1.54;88.56
74659;BME280;63186;51.204;6.536;2023-01-20T10:39:28;101047.88;;;1.52;89.45
74659;BME280;63186;51.204;6.536;2023-01-20T10:42:03;101043.38;;;1.58;89.41
74659;BME280;63186;51.204;6.536;2023-01-20T10:44:32;101042.63;;;1.62;89.89
74659;BME280;63186;51.204;6.536;2023-01-20T10:47:33;101043.75;;;1.50;89.12
74659;BME280;63186;51.204;6.536;2023-01-20T10:50:18;101048.66;;;1.36;89.66
74659;BME280;63186;51.204;6.536;2023-01-20T10:53:20;101049.31;;;1.26;89.26
74659;BME280;63186;51.204;6.536;2023-01-20T10:56:15;101051.47;;;1.13;90.82
74659;BME280;63186;51.204;6.536;2023-01-20T10:58:44;101049.09;;;1.16;91.57
74659;BME280;63186;51.204;6.536;2023-01-20T11:01:14;101037.66;;;1.14;91.67
74659;BME280;63186;51.204;6.536;2023-01-20T11:03:42;101043.66;;;1.16;91.90
74659;BME280;63186;51.204;6.536;2023-01-20T11:06:18;101031.28;;;1.20;91.99
74659;BME280;63186;51.204;6.536;2023-01-20T11:08:43;101037.03;;;1.24;92.08
74659;BME280;63186;51.204;6.536;2023-01-20T11:11:11;101027.84;;;1.25;91.95
74659;BME280;63186;51.204;6.536;2023-01-20T11:13:38;101028.56;;;1.20;92.03
74659;BME280;63186;51.204;6.536;2023-01-20T11:16:13;101042.53;;;1.12;91.85
74659;BME280;63186;51.204;6.536;2023-01-20T11:18:40;101038.38;;;1.09;92.40
74659;BME280;63186;51.204;6.536;2023-01-20T11:21:08;101047.44;;;1.15;92.53
74659;BME280;63186;51.204;6.536;2023-01-20T11:23:50;101038.75;;;1.13;92.61
74659;BME280;63186;51.204;6.536;2023-01-20T11:26:26;101038.84;;;1.18;92.44
74659;BME280;63186;51.204;6.536;2023-01-20T11:29:41;101039.66;;;1.19;92.37
74659;BME280;63186;51.204;6.536;2023-01-20T11:31:48;101047.34;;;1.10;92.68
74659;BME280;63186;51.204;6.536;2023-01-20T11:34:31;101033.47;;;1.06;92.94
74659;BME280;63186;51.204;6.536;2023-01-20T11:37:21;101039.81;;;1.12;93.32
74659;BME280;63186;51.204;6.536;2023-01-20T11:44:50;101038.78;;;1.01;92.89
74659;BME280;63186;51.204;6.536;2023-01-20T11:52:32;101033.19;;;0.79;93.89
74659;BME280;63186;51.204;6.536;2023-01-20T11:55:24;101035.78;;;0.74;94.02
74659;BME280;63186;51.204;6.536;2023-01-20T11:57:55;101028.25;;;0.65;94.40
74659;BME280;63186;51.204;6.536;2023-01-20T12:00:32;101034.41;;;0.60;94.71
74659;BME280;63186;51.204;6.536;2023-01-20T12:05:50;101024.28;;;0.56;95.42
74659;BME280;63186;51.204;6.536;2023-01-20T12:08:30;101023.22;;;0.57;95.19
74659;BME280;63186;51.204;6.536;2023-01-20T12:11:01;101027.22;;;0.54;95.22
74659;BME280;63186;51.204;6.536;2023-01-20T12:13:35;101029.13;;;0.53;95.31
74659;BME280;63186;51.204;6.536;2023-01-20T12:16:23;101024.78;;;0.52;95.70
74659;BME280;63186;51.204;6.536;2023-01-20T12:18:54;101020.50;;;0.45;96.07
74659;BME280;63186;51.204;6.536;2023-01-20T12:21:23;101024.78;;;0.41;96.44
74659;BME280;63186;51.204;6.536;2023-01-20T12:26:26;101023.34;;;0.38;96.82
74659;BME280;63186;51.204;6.536;2023-01-20T12:31:46;101027.81;;;0.44;96.76
74659;BME280;63186;51.204;6.536;2023-01-20T12:34:23;101025.09;;;0.44;96.75
74659;BME280;63186;51.204;6.536;2023-01-20T12:42:12;101022.19;;;0.46;96.77
74659;BME280;63186;51.204;6.536;2023-01-20T12:44:52;101021.34;;;0.45;96.67
74659;BME280;63186;51.204;6.536;2023-01-20T12:59:00;101019.00;;;0.37;96.97
74659;BME280;63186;51.204;6.536;2023-01-20T13:12:42;101026.41;;;0.30;97.95
74659;BME280;63186;51.204;6.536;2023-01-20T13:15:50;101031.25;;;0.28;97.43
74659;BME280;63186;51.204;6.536;2023-01-20T13:18:45;101029.63;;;0.27;97.34
74659;BME280;63186;51.204;6.536;2023-01-20T13:21:16;101029.00;;;0.25;97.44
74659;BME280;63186;51.204;6.536;2023-01-20T13:23:43;101029.50;;;0.22;97.21
74659;BME280;63186;51.204;6.536;2023-01-20T13:26:09;101033.25;;;0.21;97.66
74659;BME280;63186;51.204;6.536;2023-01-20T13:28:35;101033.47;;;0.19;97.22
74659;BME280;63186;51.204;6.536;2023-01-20T13:41:53;101039.00;;;0.13;98.24
74659;BME280;63186;51.204;6.536;2023-01-20T13:44:34;101043.84;;;0.11;98.19
74659;BME280;63186;51.204;6.536;2023-01-20T13:47:01;101047.13;;;0.13;98.94
74659;BME280;63186;51.204;6.536;2023-01-20T13:49:28;101052.09;;;0.16;98.65
74659;BME280;63186;51.204;6.536;2023-01-20T13:52:08;101048.81;;;0.14;98.45
74659;BME280;63186;51.204;6.536;2023-01-20T13:54:39;101048.81;;;0.14;98.57
74659;BME280;63186;51.204;6.536;2023-01-20T13:57:32;101055.25;;;0.13;98.75
74659;BME280;63186;51.204;6.536;2023-01-20T13:59:57;101057.38;;;0.11;98.94
74659;BME280;63186;51.204;6.536;2023-01-20T14:02:25;101059.38;;;0.15;98.84
74659;BME280;63186;51.204;6.536;2023-01-20T14:04:50;101058.31;;;0.16;98.75
74659;BME280;63186;51.204;6.536;2023-01-20T14:07:23;101057.25;;;0.17;98.51
74659;BME280;63186;51.204;6.536;2023-01-20T14:09:57;101055.03;;;0.14;98.98
74659;BME280;63186;51.204;6.536;2023-01-20T14:12:22;101059.25;;;0.10;99.08
74659;BME280;63186;51.204;6.536;2023-01-20T14:14:48;101063.97;;;0.15;98.90
74659;BME280;63186;51.204;6.536;2023-01-20T14:17:17;101065.50;;;0.11;98.80
74659;BME280;63186;51.204;6.536;2023-01-20T14:19:49;101079.75;;;0.18;98.93
74659;BME280;63186;51.204;6.536;2023-01-20T14:22:30;101068.09;;;0.17;98.63
74659;BME280;63186;51.204;6.536;2023-01-20T14:24:56;101067.84;;;0.19;98.53
74659;BME280;63186;51.204;6.536;2023-01-20T14:29:53;101069.03;;;0.23;98.73
74659;BME280;63186;51.204;6.536;2023-01-20T14:32:22;101079.03;;;0.22;98.71
74659;BME280;63186;51.204;6.536;2023-01-20T14:34:49;101075.53;;;0.22;98.64
74659;BME280;63186;51.204;6.536;2023-01-20T14:37:28;101078.22;;;0.22;98.65
74659;BME280;63186;51.204;6.536;2023-01-20T14:39:55;101080.69;;;0.23;98.61
74659;BME280;63186;51.204;6.536;2023-01-20T14:42:24;101086.09;;;0.23;98.21
74659;BME280;63186;51.204;6.536;2023-01-20T14:44:51;101100.47;;;0.24;98.25
74659;BME280;63186;51.204;6.536;2023-01-20T14:47:18;101109.66;;;0.23;98.02